sensor_id;sensor_type;location;lat;lon;timestamp;P1;durP1;ratioP1;P2;durP2;ratioP2
65463;SDS011;52063;45.110;9.870;2023-04-24T00:01:26;5.43;;;3.23;;
65463;SDS011;52063;45.110;9.870;2023-04-24T00:03:54;3.30;;;3.00;;
65463;SDS011;52063;45.110;9.870;2023-04-24T00:06:19;3.25;;;2.95;;
65463;SDS011;52063;45.110;9.870;2023-04-24T00:08:45;4.57;;;3.27;;
65463;SDS011;52063;45.110;9.870;2023-04-24T00:11:11;3.35;;;2.85;;
65463;SDS011;52063;45.110;9.870;2023-04-24T00:13:37;3.60;;;2.77;;
65463;SDS011;52063;45.110;9.870;2023-04-24T00:16:02;2.90;;;2.60;;
65463;SDS011;52063;45.110;9.870;2023-04-24T00:18:28;3.30;;;2.97;;
65463;SDS011;52063;45.110;9.870;2023-04-24T00:20:54;3.15;;;2.78;;
65463;SDS011;52063;45.110;9.870;2023-04-24T00:23:19;3.27;;;2.80;;
65463;SDS011;52063;45.110;9.870;2023-04-24T00:25:44;3.37;;;2.80;;
65463;SDS011;52063;45.110;9.870;2023-04-24T00:28:10;3.50;;;3.20;;
65463;SDS011;52063;45.110;9.870;2023-04-24T00:30:35;3.27;;;2.97;;
65463;SDS011;52063;45.110;9.870;2023-04-24T00:33:01;3.43;;;2.90;;
65463;SDS011;52063;45.110;9.870;2023-04-24T00:35:26;3.10;;;2.80;;
65463;SDS011;52063;45.110;9.870;2023-04-24T00:37:52;2.80;;;2.50;;
65463;SDS011;52063;45.110;9.870;2023-04-24T00:40:17;3.63;;;3.10;;
65463;SDS011;52063;45.110;9.870;2023-04-24T00:42:43;3.20;;;2.85;;
65463;SDS011;52063;45.110;9.870;2023-04-24T00:45:09;3.20;;;2.83;;
65463;SDS011;52063;45.110;9.870;2023-04-24T00:47:35;3.15;;;2.85;;
65463;SDS011;52063;45.110;9.870;2023-04-24T00:50:01;4.70;;;3.20;;
65463;SDS011;52063;45.110;9.870;2023-04-24T00:52:28;2.78;;;2.58;;
65463;SDS011;52063;45.110;9.870;2023-04-24T00:54:53;2.80;;;2.60;;
65463;SDS011;52063;45.110;9.870;2023-04-24T00:57:18;3.37;;;2.77;;
65463;SDS011;52063;45.110;9.870;2023-04-24T00:59:44;2.97;;;2.72;;
65463;SDS011;52063;45.110;9.870;2023-04-24T01:02:10;3.13;;;2.83;;
65463;SDS011;52063;45.110;9.870;2023-04-24T01:04:36;2.90;;;2.60;;
65463;SDS011;52063;45.110;9.870;2023-04-24T01:07:03;2.95;;;2.70;;
65463;SDS011;52063;45.110;9.870;2023-04-24T01:09:35;2.93;;;2.60;;
65463;SDS011;52063;45.110;9.870;2023-04-24T01:12:01;3.28;;;2.92;;
65463;SDS011;52063;45.110;9.870;2023-04-24T01:14:26;3.03;;;2.83;;
65463;SDS011;52063;45.110;9.870;2023-04-24T01:16:52;3.97;;;2.70;;
65463;SDS011;52063;45.110;9.870;2023-04-24T01:19:17;3.00;;;2.70;;
65463;SDS011;52063;45.110;9.870;2023-04-24T01:21:44;2.83;;;2.47;;
65463;SDS011;52063;45.110;9.870;2023-04-24T01:24:10;3.10;;;2.88;;
65463;SDS011;52063;45.110;9.870;2023-04-24T01:26:37;3.05;;;2.75;;
65463;SDS011;52063;45.110;9.870;2023-04-24T01:29:02;2.80;;;2.60;;
65463;SDS011;52063;45.110;9.870;2023-04-24T01:31:28;3.07;;;2.77;;
65463;SDS011;52063;45.110;9.870;2023-04-24T01:33:53;3.17;;;2.88;;
65463;SDS011;52063;45.110;9.870;2023-04-24T01:36:19;3.03;;;2.70;;
65463;SDS011;52063;45.110;9.870;2023-04-24T01:38:46;2.80;;;2.60;;
65463;SDS011;52063;45.110;9.870;2023-04-24T01:41:11;2.78;;;2.50;;
65463;SDS011;52063;45.110;9.870;2023-04-24T01:43:37;4.60;;;2.70;;
65463;SDS011;52063;45.110;9.870;2023-04-24T01:46:02;2.60;;;2.40;;
65463;SDS011;52063;45.110;9.870;2023-04-24T01:48:28;3.03;;;2.63;;
65463;SDS011;52063;45.110;9.870;2023-04-24T01:50:53;3.23;;;2.63;;
65463;SDS011;52063;45.110;9.870;2023-04-24T01:53:19;2.63;;;2.40;;
65463;SDS011;52063;45.110;9.870;2023-04-24T01:55:44;2.63;;;2.43;;
65463;SDS011;52063;45.110;9.870;2023-04-24T01:58:11;3.13;;;2.80;;
65463;SDS011;52063;45.110;9.870;2023-04-24T02:00:37;2.83;;;2.60;;
65463;SDS011;52063;45.110;9.870;2023-04-24T02:03:02;2.90;;;2.57;;
65463;SDS011;52063;45.110;9.870;2023-04-24T02:05:28;4.13;;;2.20;;
65463;SDS011;52063;45.110;9.870;2023-04-24T02:07:54;4.68;;;2.22;;
65463;SDS011;52063;45.110;9.870;2023-04-24T02:10:20;2.37;;;2.17;;
65463;SDS011;52063;45.110;9.870;2023-04-24T02:12:45;2.42;;;2.22;;
65463;SDS011;52063;45.110;9.870;2023-04-24T02:15:11;2.60;;;2.10;;
65463;SDS011;52063;45.110;9.870;2023-04-24T02:17:37;3.10;;;2.10;;
65463;SDS011;52063;45.110;9.870;2023-04-24T02:20:03;2.25;;;2.05;;
65463;SDS011;52063;45.110;9.870;2023-04-24T02:22:30;3.10;;;2.10;;
65463;SDS011;52063;45.110;9.870;2023-04-24T02:24:56;2.40;;;2.20;;
65463;SDS011;52063;45.110;9.870;2023-04-24T02:27:21;2.03;;;1.80;;
65463;SDS011;52063;45.110;9.870;2023-04-24T02:29:46;2.60;;;2.20;;
65463;SDS011;52063;45.110;9.870;2023-04-24T02:32:12;2.80;;;2.60;;
65463;SDS011;52063;45.110;9.870;2023-04-24T02:34:38;2.83;;;2.40;;
65463;SDS011;52063;45.110;9.870;2023-04-24T02:37:03;2.60;;;2.40;;
65463;SDS011;52063;45.110;9.870;2023-04-24T02:39:29;2.22;;;2.03;;
65463;SDS011;52063;45.110;9.870;2023-04-24T02:41:54;2.23;;;2.03;;
65463;SDS011;52063;45.110;9.870;2023-04-24T02:44:19;2.33;;;2.13;;
65463;SDS011;52063;45.110;9.870;2023-04-24T02:46:46;2.20;;;2.00;;
65463;SDS011;52063;45.110;9.870;2023-04-24T02:49:12;2.30;;;2.10;;
65463;SDS011;52063;45.110;9.870;2023-04-24T02:51:37;2.47;;;2.28;;
65463;SDS011;52063;45.110;9.870;2023-04-24T02:54:06;2.47;;;2.20;;
65463;SDS011;52063;45.110;9.870;2023-04-24T02:56:33;2.38;;;2.17;;
65463;SDS011;52063;45.110;9.870;2023-04-24T02:58:59;2.40;;;2.20;;
65463;SDS011;52063;45.110;9.870;2023-04-24T03:01:25;2.40;;;2.20;;
65463;SDS011;52063;45.110;9.870;2023-04-24T03:03:50;2.20;;;2.08;;
65463;SDS011;52063;45.110;9.870;2023-04-24T03:06:16;2.50;;;2.30;;
65463;SDS011;52063;45.110;9.870;2023-04-24T03:08:41;2.40;;;2.20;;
65463;SDS011;52063;45.110;9.870;2023-04-24T03:11:07;3.10;;;2.47;;
65463;SDS011;52063;45.110;9.870;2023-04-24T03:13:33;2.70;;;2.30;;
65463;SDS011;52063;45.110;9.870;2023-04-24T03:15:59;2.50;;;2.20;;
65463;SDS011;52063;45.110;9.870;2023-04-24T03:18:26;3.20;;;2.13;;
65463;SDS011;52063;45.110;9.870;2023-04-24T03:20:52;2.83;;;2.23;;
65463;SDS011;52063;45.110;9.870;2023-04-24T03:23:17;2.38;;;2.17;;
65463;SDS011;52063;45.110;9.870;2023-04-24T03:25:44;2.70;;;2.50;;
65463;SDS011;52063;45.110;9.870;2023-04-24T03:28:11;2.80;;;2.20;;
65463;SDS011;52063;45.110;9.870;2023-04-24T03:30:47;2.70;;;2.10;;
65463;SDS011;52063;45.110;9.870;2023-04-24T03:33:14;2.33;;;2.13;;
65463;SDS011;52063;45.110;9.870;2023-04-24T03:35:48;2.50;;;2.30;;
65463;SDS011;52063;45.110;9.870;2023-04-24T03:38:13;2.40;;;2.20;;
65463;SDS011;52063;45.110;9.870;2023-04-24T03:41:02;2.33;;;1.88;;
65463;SDS011;52063;45.110;9.870;2023-04-24T03:43:42;2.35;;;2.10;;
65463;SDS011;52063;45.110;9.870;2023-04-24T03:46:08;3.07;;;1.80;;
65463;SDS011;52063;45.110;9.870;2023-04-24T03:48:38;3.33;;;2.00;;
65463;SDS011;52063;45.110;9.870;2023-04-24T03:51:05;2.78;;;2.38;;
65463;SDS011;52063;45.110;9.870;2023-04-24T03:53:32;2.53;;;2.08;;
65463;SDS011;52063;45.110;9.870;2023-04-24T03:55:58;2.60;;;2.03;;
65463;SDS011;52063;45.110;9.870;2023-04-24T03:58:24;2.28;;;2.08;;
65463;SDS011;52063;45.110;9.870;2023-04-24T04:00:50;2.22;;;1.80;;
65463;SDS011;52063;45.110;9.870;2023-04-24T04:03:43;2.30;;;2.10;;
65463;SDS011;52063;45.110;9.870;2023-04-24T04:06:09;2.40;;;2.20;;
65463;SDS011;52063;45.110;9.870;2023-04-24T04:08:37;2.10;;;1.90;;
65463;SDS011;52063;45.110;9.870;2023-04-24T04:11:02;2.57;;;2.07;;
65463;SDS011;52063;45.110;9.870;2023-04-24T04:13:28;2.17;;;1.90;;
65463;SDS011;52063;45.110;9.870;2023-04-24T04:15:53;1.97;;;1.77;;
65463;SDS011;52063;45.110;9.870;2023-04-24T04:18:20;2.63;;;1.92;;
65463;SDS011;52063;45.110;9.870;2023-04-24T04:20:45;2.37;;;2.00;;
65463;SDS011;52063;45.110;9.870;2023-04-24T04:23:13;2.05;;;1.63;;
65463;SDS011;52063;45.110;9.870;2023-04-24T04:25:54;1.98;;;1.85;;
65463;SDS011;52063;45.110;9.870;2023-04-24T04:28:24;2.72;;;2.03;;
65463;SDS011;52063;45.110;9.870;2023-04-24T04:30:50;2.22;;;2.03;;
65463;SDS011;52063;45.110;9.870;2023-04-24T04:33:19;1.93;;;1.70;;
65463;SDS011;52063;45.110;9.870;2023-04-24T04:35:46;2.28;;;1.80;;
65463;SDS011;52063;45.110;9.870;2023-04-24T04:38:14;3.13;;;1.90;;
65463;SDS011;52063;45.110;9.870;2023-04-24T04:40:47;3.00;;;2.10;;
65463;SDS011;52063;45.110;9.870;2023-04-24T04:43:17;3.20;;;2.00;;
65463;SDS011;52063;45.110;9.870;2023-04-24T04:45:49;2.10;;;1.90;;
65463;SDS011;52063;45.110;9.870;2023-04-24T04:48:34;2.20;;;2.00;;
65463;SDS011;52063;45.110;9.870;2023-04-24T04:51:01;2.10;;;1.90;;
65463;SDS011;52063;45.110;9.870;2023-04-24T04:53:27;2.45;;;2.10;;
65463;SDS011;52063;45.110;9.870;2023-04-24T04:55:53;2.30;;;2.10;;
65463;SDS011;52063;45.110;9.870;2023-04-24T04:58:21;2.95;;;1.60;;
65463;SDS011;52063;45.110;9.870;2023-04-24T05:00:51;2.42;;;2.10;;
65463;SDS011;52063;45.110;9.870;2023-04-24T05:03:27;2.33;;;1.90;;
65463;SDS011;52063;45.110;9.870;2023-04-24T05:05:58;3.08;;;1.98;;
65463;SDS011;52063;45.110;9.870;2023-04-24T05:08:26;2.30;;;2.10;;
65463;SDS011;52063;45.110;9.870;2023-04-24T05:10:51;2.38;;;1.90;;
65463;SDS011;52063;45.110;9.870;2023-04-24T05:13:17;2.53;;;2.33;;
65463;SDS011;52063;45.110;9.870;2023-04-24T05:15:43;2.80;;;1.87;;
65463;SDS011;52063;45.110;9.870;2023-04-24T05:18:08;2.30;;;1.53;;
65463;SDS011;52063;45.110;9.870;2023-04-24T05:20:34;2.47;;;1.83;;
65463;SDS011;52063;45.110;9.870;2023-04-24T05:22:59;3.13;;;1.70;;
65463;SDS011;52063;45.110;9.870;2023-04-24T05:25:26;2.35;;;1.80;;
65463;SDS011;52063;45.110;9.870;2023-04-24T05:27:59;2.23;;;2.00;;
65463;SDS011;52063;45.110;9.870;2023-04-24T05:30:25;1.70;;;1.60;;
65463;SDS011;52063;45.110;9.870;2023-04-24T05:32:50;1.60;;;1.50;;
65463;SDS011;52063;45.110;9.870;2023-04-24T05:35:16;2.00;;;1.80;;
65463;SDS011;52063;45.110;9.870;2023-04-24T05:37:41;1.98;;;1.83;;
65463;SDS011;52063;45.110;9.870;2023-04-24T05:40:08;2.70;;;2.03;;
65463;SDS011;52063;45.110;9.870;2023-04-24T05:42:34;2.07;;;1.60;;
65463;SDS011;52063;45.110;9.870;2023-04-24T05:44:59;1.83;;;1.63;;
65463;SDS011;52063;45.110;9.870;2023-04-24T05:47:25;1.73;;;1.63;;
65463;SDS011;52063;45.110;9.870;2023-04-24T05:49:52;1.73;;;1.63;;
65463;SDS011;52063;45.110;9.870;2023-04-24T05:52:18;2.17;;;1.98;;
65463;SDS011;52063;45.110;9.870;2023-04-24T05:54:44;1.88;;;1.67;;
65463;SDS011;52063;45.110;9.870;2023-04-24T05:57:12;1.90;;;1.70;;
65463;SDS011;52063;45.110;9.870;2023-04-24T05:59:48;2.30;;;2.10;;
65463;SDS011;52063;45.110;9.870;2023-04-24T06:02:16;2.05;;;1.90;;
65463;SDS011;52063;45.110;9.870;2023-04-24T06:04:43;1.90;;;1.80;;
65463;SDS011;52063;45.110;9.870;2023-04-24T06:07:10;1.90;;;1.67;;
65463;SDS011;52063;45.110;9.870;2023-04-24T06:09:36;2.45;;;1.92;;
65463;SDS011;52063;45.110;9.870;2023-04-24T06:12:02;2.70;;;2.10;;
65463;SDS011;52063;45.110;9.870;2023-04-24T06:14:41;1.70;;;1.60;;
65463;SDS011;52063;45.110;9.870;2023-04-24T06:17:19;2.30;;;1.58;;
65463;SDS011;52063;45.110;9.870;2023-04-24T06:19:45;2.15;;;1.92;;
65463;SDS011;52063;45.110;9.870;2023-04-24T06:22:11;2.10;;;1.90;;
65463;SDS011;52063;45.110;9.870;2023-04-24T06:24:36;1.67;;;1.58;;
65463;SDS011;52063;45.110;9.870;2023-04-24T06:27:02;1.77;;;1.50;;
65463;SDS011;52063;45.110;9.870;2023-04-24T06:29:27;1.85;;;1.75;;
65463;SDS011;52063;45.110;9.870;2023-04-24T06:31:53;2.63;;;2.43;;
65463;SDS011;52063;45.110;9.870;2023-04-24T06:34:18;4.63;;;3.90;;
65463;SDS011;52063;45.110;9.870;2023-04-24T06:36:46;5.68;;;4.78;;
65463;SDS011;52063;45.110;9.870;2023-04-24T06:39:12;4.43;;;4.03;;
65463;SDS011;52063;45.110;9.870;2023-04-24T06:41:37;6.07;;;5.43;;
65463;SDS011;52063;45.110;9.870;2023-04-24T06:44:03;6.17;;;5.57;;
65463;SDS011;52063;45.110;9.870;2023-04-24T06:46:28;8.65;;;5.70;;
65463;SDS011;52063;45.110;9.870;2023-04-24T06:48:54;8.67;;;6.27;;
65463;SDS011;52063;45.110;9.870;2023-04-24T06:51:22;6.72;;;5.97;;
65463;SDS011;52063;45.110;9.870;2023-04-24T06:53:51;11.50;;;5.88;;
65463;SDS011;52063;45.110;9.870;2023-04-24T06:56:17;17.83;;;6.70;;
65463;SDS011;52063;45.110;9.870;2023-04-24T06:58:43;8.65;;;6.15;;
65463;SDS011;52063;45.110;9.870;2023-04-24T07:01:08;10.27;;;5.33;;
65463;SDS011;52063;45.110;9.870;2023-04-24T07:03:34;8.55;;;4.97;;
65463;SDS011;52063;45.110;9.870;2023-04-24T07:06:00;6.53;;;4.70;;
65463;SDS011;52063;45.110;9.870;2023-04-24T07:08:26;8.90;;;4.60;;
65463;SDS011;52063;45.110;9.870;2023-04-24T07:10:51;4.28;;;3.88;;
65463;SDS011;52063;45.110;9.870;2023-04-24T07:13:17;9.27;;;3.70;;
65463;SDS011;52063;45.110;9.870;2023-04-24T07:15:42;6.30;;;4.80;;
65463;SDS011;52063;45.110;9.870;2023-04-24T07:18:08;4.53;;;4.03;;
65463;SDS011;52063;45.110;9.870;2023-04-24T07:20:33;5.00;;;4.47;;
65463;SDS011;52063;45.110;9.870;2023-04-24T07:22:59;7.93;;;4.47;;
65463;SDS011;52063;45.110;9.870;2023-04-24T07:25:25;6.80;;;4.70;;
65463;SDS011;52063;45.110;9.870;2023-04-24T07:27:50;5.43;;;4.80;;
65463;SDS011;52063;45.110;9.870;2023-04-24T07:30:16;6.73;;;5.07;;
65463;SDS011;52063;45.110;9.870;2023-04-24T07:32:41;8.87;;;4.50;;
65463;SDS011;52063;45.110;9.870;2023-04-24T07:35:07;4.82;;;3.90;;
65463;SDS011;52063;45.110;9.870;2023-04-24T07:37:34;5.87;;;4.00;;
65463;SDS011;52063;45.110;9.870;2023-04-24T07:40:00;6.25;;;4.20;;
65463;SDS011;52063;45.110;9.870;2023-04-24T07:42:25;8.60;;;4.50;;
65463;SDS011;52063;45.110;9.870;2023-04-24T07:44:50;5.47;;;4.60;;
65463;SDS011;52063;45.110;9.870;2023-04-24T07:47:16;4.20;;;3.80;;
65463;SDS011;52063;45.110;9.870;2023-04-24T07:49:41;4.38;;;3.80;;
65463;SDS011;52063;45.110;9.870;2023-04-24T07:52:07;6.30;;;3.77;;
65463;SDS011;52063;45.110;9.870;2023-04-24T07:54:33;4.50;;;3.67;;
65463;SDS011;52063;45.110;9.870;2023-04-24T07:56:58;10.63;;;3.40;;
65463;SDS011;52063;45.110;9.870;2023-04-24T07:59:25;7.05;;;5.47;;
65463;SDS011;52063;45.110;9.870;2023-04-24T08:01:50;7.63;;;6.83;;
65463;SDS011;52063;45.110;9.870;2023-04-24T08:04:16;10.45;;;6.93;;
65463;SDS011;52063;45.110;9.870;2023-04-24T08:06:43;8.97;;;7.67;;
65463;SDS011;52063;45.110;9.870;2023-04-24T08:09:08;7.30;;;6.13;;
65463;SDS011;52063;45.110;9.870;2023-04-24T08:11:34;7.17;;;6.23;;
65463;SDS011;52063;45.110;9.870;2023-04-24T08:13:59;12.15;;;7.40;;
65463;SDS011;52063;45.110;9.870;2023-04-24T08:16:25;6.03;;;5.00;;
65463;SDS011;52063;45.110;9.870;2023-04-24T08:18:50;6.60;;;5.33;;
65463;SDS011;52063;45.110;9.870;2023-04-24T08:21:16;6.90;;;5.88;;
65463;SDS011;52063;45.110;9.870;2023-04-24T08:23:43;6.32;;;5.30;;
65463;SDS011;52063;45.110;9.870;2023-04-24T08:26:10;6.53;;;5.40;;
65463;SDS011;52063;45.110;9.870;2023-04-24T08:28:36;5.97;;;4.43;;
65463;SDS011;52063;45.110;9.870;2023-04-24T08:31:02;14.00;;;8.63;;
65463;SDS011;52063;45.110;9.870;2023-04-24T08:33:27;57.30;;;25.00;;
65463;SDS011;52063;45.110;9.870;2023-04-24T08:35:59;43.60;;;20.27;;
65463;SDS011;52063;45.110;9.870;2023-04-24T08:38:25;48.90;;;23.67;;
65463;SDS011;52063;45.110;9.870;2023-04-24T08:40:51;45.93;;;21.67;;
65463;SDS011;52063;45.110;9.870;2023-04-24T08:43:17;38.63;;;19.27;;
65463;SDS011;52063;45.110;9.870;2023-04-24T08:45:42;29.67;;;15.43;;
65463;SDS011;52063;45.110;9.870;2023-04-24T08:48:08;31.80;;;16.30;;
65463;SDS011;52063;45.110;9.870;2023-04-24T08:50:34;31.30;;;15.77;;
65463;SDS011;52063;45.110;9.870;2023-04-24T08:53:00;27.03;;;14.20;;
65463;SDS011;52063;45.110;9.870;2023-04-24T08:55:26;24.98;;;13.45;;
65463;SDS011;52063;45.110;9.870;2023-04-24T08:57:52;24.07;;;12.90;;
65463;SDS011;52063;45.110;9.870;2023-04-24T09:00:19;21.05;;;11.65;;
65463;SDS011;52063;45.110;9.870;2023-04-24T09:02:45;22.23;;;12.00;;
65463;SDS011;52063;45.110;9.870;2023-04-24T09:05:12;22.88;;;11.23;;
65463;SDS011;52063;45.110;9.870;2023-04-24T09:07:39;18.55;;;10.27;;
65463;SDS011;52063;45.110;9.870;2023-04-24T09:10:05;17.23;;;9.90;;
65463;SDS011;52063;45.110;9.870;2023-04-24T09:12:32;15.32;;;8.77;;
65463;SDS011;52063;45.110;9.870;2023-04-24T09:14:58;16.55;;;9.38;;
65463;SDS011;52063;45.110;9.870;2023-04-24T09:17:25;16.92;;;8.75;;
65463;SDS011;52063;45.110;9.870;2023-04-24T09:19:52;13.40;;;8.20;;
65463;SDS011;52063;45.110;9.870;2023-04-24T09:22:17;12.30;;;7.40;;
65463;SDS011;52063;45.110;9.870;2023-04-24T09:24:42;11.50;;;7.60;;
65463;SDS011;52063;45.110;9.870;2023-04-24T09:27:10;9.93;;;6.30;;
65463;SDS011;52063;45.110;9.870;2023-04-24T09:29:37;9.27;;;6.60;;
65463;SDS011;52063;45.110;9.870;2023-04-24T09:35:14;9.55;;;5.75;;
65463;SDS011;52063;45.110;9.870;2023-04-24T09:37:41;9.27;;;5.53;;
65463;SDS011;52063;45.110;9.870;2023-04-24T09:40:16;9.27;;;5.63;;
65463;SDS011;52063;45.110;9.870;2023-04-24T09:42:44;6.47;;;5.60;;
65463;SDS011;52063;45.110;9.870;2023-04-24T09:45:11;7.90;;;5.78;;
65463;SDS011;52063;45.110;9.870;2023-04-24T09:47:37;6.80;;;5.53;;
65463;SDS011;52063;45.110;9.870;2023-04-24T09:50:10;8.63;;;5.40;;
65463;SDS011;52063;45.110;9.870;2023-04-24T09:52:56;7.97;;;5.32;;
65463;SDS011;52063;45.110;9.870;2023-04-24T09:55:23;6.57;;;5.03;;
65463;SDS011;52063;45.110;9.870;2023-04-24T09:57:52;6.67;;;5.17;;
65463;SDS011;52063;45.110;9.870;2023-04-24T10:00:29;5.47;;;4.97;;
65463;SDS011;52063;45.110;9.870;2023-04-24T10:03:00;5.88;;;4.97;;
65463;SDS011;52063;45.110;9.870;2023-04-24T10:05:27;5.88;;;5.10;;
65463;SDS011;52063;45.110;9.870;2023-04-24T10:07:57;7.43;;;5.33;;
65463;SDS011;52063;45.110;9.870;2023-04-24T10:10:25;9.70;;;5.57;;
65463;SDS011;52063;45.110;9.870;2023-04-24T10:12:51;7.55;;;5.20;;
65463;SDS011;52063;45.110;9.870;2023-04-24T10:15:16;5.07;;;4.37;;
65463;SDS011;52063;45.110;9.870;2023-04-24T10:17:46;4.60;;;4.15;;
65463;SDS011;52063;45.110;9.870;2023-04-24T10:20:22;9.02;;;4.97;;
65463;SDS011;52063;45.110;9.870;2023-04-24T10:22:49;5.23;;;4.70;;
65463;SDS011;52063;45.110;9.870;2023-04-24T10:25:17;5.82;;;4.72;;
65463;SDS011;52063;45.110;9.870;2023-04-24T10:27:43;5.22;;;4.72;;
65463;SDS011;52063;45.110;9.870;2023-04-24T10:30:11;5.28;;;4.70;;
65463;SDS011;52063;45.110;9.870;2023-04-24T10:32:37;5.80;;;5.22;;
65463;SDS011;52063;45.110;9.870;2023-04-24T10:35:03;5.10;;;4.40;;
65463;SDS011;52063;45.110;9.870;2023-04-24T10:37:28;5.22;;;4.72;;
65463;SDS011;52063;45.110;9.870;2023-04-24T10:40:00;4.70;;;3.97;;
65463;SDS011;52063;45.110;9.870;2023-04-24T10:42:26;4.70;;;4.20;;
65463;SDS011;52063;45.110;9.870;2023-04-24T10:44:52;4.60;;;4.10;;
65463;SDS011;52063;45.110;9.870;2023-04-24T10:47:19;5.85;;;4.65;;
65463;SDS011;52063;45.110;9.870;2023-04-24T10:49:44;4.70;;;3.90;;
65463;SDS011;52063;45.110;9.870;2023-04-24T10:52:10;4.32;;;3.92;;
65463;SDS011;52063;45.110;9.870;2023-04-24T10:59:48;4.28;;;3.88;;
65463;SDS011;52063;45.110;9.870;2023-04-24T11:02:15;4.50;;;4.05;;
65463;SDS011;52063;45.110;9.870;2023-04-24T11:04:41;4.05;;;3.67;;
65463;SDS011;52063;45.110;9.870;2023-04-24T11:07:10;5.55;;;4.03;;
65463;SDS011;52063;45.110;9.870;2023-04-24T11:09:36;4.73;;;4.33;;
65463;SDS011;52063;45.110;9.870;2023-04-24T11:12:11;4.53;;;3.88;;
65463;SDS011;52063;45.110;9.870;2023-04-24T11:17:29;4.30;;;3.85;;
65463;SDS011;52063;45.110;9.870;2023-04-24T11:20:03;3.30;;;2.90;;
65463;SDS011;52063;45.110;9.870;2023-04-24T11:22:35;3.67;;;3.38;;
65463;SDS011;52063;45.110;9.870;2023-04-24T11:25:02;4.30;;;3.90;;
65463;SDS011;52063;45.110;9.870;2023-04-24T11:27:31;4.10;;;3.60;;
65463;SDS011;52063;45.110;9.870;2023-04-24T11:32:26;3.67;;;3.20;;
65463;SDS011;52063;45.110;9.870;2023-04-24T11:35:06;3.67;;;3.38;;
65463;SDS011;52063;45.110;9.870;2023-04-24T11:40:02;4.10;;;3.55;;
65463;SDS011;52063;45.110;9.870;2023-04-24T11:42:33;3.92;;;3.42;;
65463;SDS011;52063;45.110;9.870;2023-04-24T11:45:02;4.20;;;3.20;;
65463;SDS011;52063;45.110;9.870;2023-04-24T11:47:33;3.45;;;2.88;;
65463;SDS011;52063;45.110;9.870;2023-04-24T11:49:59;3.00;;;2.80;;
65463;SDS011;52063;45.110;9.870;2023-04-24T11:52:25;3.55;;;3.10;;
65463;SDS011;52063;45.110;9.870;2023-04-24T11:54:51;3.47;;;3.20;;
65463;SDS011;52063;45.110;9.870;2023-04-24T11:57:20;3.22;;;2.78;;
65463;SDS011;52063;45.110;9.870;2023-04-24T11:59:47;3.30;;;3.00;;
65463;SDS011;52063;45.110;9.870;2023-04-24T12:04:47;3.33;;;2.90;;
65463;SDS011;52063;45.110;9.870;2023-04-24T12:07:13;2.87;;;2.67;;
65463;SDS011;52063;45.110;9.870;2023-04-24T12:09:42;2.70;;;2.50;;
65463;SDS011;52063;45.110;9.870;2023-04-24T12:12:11;3.13;;;2.83;;
65463;SDS011;52063;45.110;9.870;2023-04-24T12:17:13;4.30;;;3.20;;
65463;SDS011;52063;45.110;9.870;2023-04-24T12:19:44;3.08;;;2.58;;
65463;SDS011;52063;45.110;9.870;2023-04-24T12:22:12;6.25;;;3.40;;
65463;SDS011;52063;45.110;9.870;2023-04-24T12:24:55;3.63;;;3.33;;
65463;SDS011;52063;45.110;9.870;2023-04-24T12:27:24;5.60;;;3.92;;
65463;SDS011;52063;45.110;9.870;2023-04-24T12:29:56;5.43;;;4.20;;
65463;SDS011;52063;45.110;9.870;2023-04-24T12:32:22;5.47;;;3.75;;
65463;SDS011;52063;45.110;9.870;2023-04-24T12:34:51;4.55;;;3.55;;
65463;SDS011;52063;45.110;9.870;2023-04-24T12:37:17;3.88;;;3.53;;
65463;SDS011;52063;45.110;9.870;2023-04-24T12:42:33;4.63;;;2.85;;
65463;SDS011;52063;45.110;9.870;2023-04-24T12:45:01;5.85;;;3.33;;
65463;SDS011;52063;45.110;9.870;2023-04-24T12:47:28;3.13;;;2.83;;
65463;SDS011;52063;45.110;9.870;2023-04-24T12:49:54;2.72;;;2.53;;
65463;SDS011;52063;45.110;9.870;2023-04-24T12:52:23;3.92;;;2.67;;
65463;SDS011;52063;45.110;9.870;2023-04-24T12:54:49;2.70;;;2.40;;
65463;SDS011;52063;45.110;9.870;2023-04-24T12:57:16;2.78;;;2.50;;
65463;SDS011;52063;45.110;9.870;2023-04-24T12:59:42;2.60;;;2.40;;
65463;SDS011;52063;45.110;9.870;2023-04-24T13:02:09;2.35;;;1.85;;
65463;SDS011;52063;45.110;9.870;2023-04-24T13:04:35;2.20;;;2.00;;
65463;SDS011;52063;45.110;9.870;2023-04-24T13:07:01;3.35;;;1.98;;
65463;SDS011;52063;45.110;9.870;2023-04-24T13:09:26;2.00;;;1.90;;
65463;SDS011;52063;45.110;9.870;2023-04-24T13:11:51;2.70;;;1.83;;
65463;SDS011;52063;45.110;9.870;2023-04-24T13:14:17;2.40;;;2.00;;
65463;SDS011;52063;45.110;9.870;2023-04-24T13:16:42;2.20;;;1.92;;
65463;SDS011;52063;45.110;9.870;2023-04-24T13:19:08;1.93;;;1.57;;
65463;SDS011;52063;45.110;9.870;2023-04-24T13:21:33;1.80;;;1.70;;
65463;SDS011;52063;45.110;9.870;2023-04-24T13:23:59;2.43;;;1.83;;
65463;SDS011;52063;45.110;9.870;2023-04-24T13:26:24;1.73;;;1.60;;
65463;SDS011;52063;45.110;9.870;2023-04-24T13:28:50;1.90;;;1.70;;
65463;SDS011;52063;45.110;9.870;2023-04-24T13:31:15;2.72;;;1.42;;
65463;SDS011;52063;45.110;9.870;2023-04-24T13:33:41;1.67;;;1.27;;
65463;SDS011;52063;45.110;9.870;2023-04-24T13:36:06;1.33;;;1.20;;
65463;SDS011;52063;45.110;9.870;2023-04-24T13:38:32;1.23;;;1.13;;
65463;SDS011;52063;45.110;9.870;2023-04-24T13:40:57;2.40;;;1.30;;
65463;SDS011;52063;45.110;9.870;2023-04-24T13:43:23;1.00;;;0.90;;
65463;SDS011;52063;45.110;9.870;2023-04-24T13:45:48;1.20;;;1.10;;
65463;SDS011;52063;45.110;9.870;2023-04-24T13:48:14;1.50;;;1.10;;
65463;SDS011;52063;45.110;9.870;2023-04-24T13:50:43;1.35;;;1.10;;
65463;SDS011;52063;45.110;9.870;2023-04-24T13:53:09;1.57;;;1.20;;
65463;SDS011;52063;45.110;9.870;2023-04-24T13:55:35;2.33;;;1.00;;
65463;SDS011;52063;45.110;9.870;2023-04-24T13:58:01;1.90;;;1.17;;
65463;SDS011;52063;45.110;9.870;2023-04-24T14:00:27;1.80;;;1.30;;
65463;SDS011;52063;45.110;9.870;2023-04-24T14:02:53;1.50;;;1.10;;
65463;SDS011;52063;45.110;9.870;2023-04-24T14:05:18;1.13;;;1.00;;
65463;SDS011;52063;45.110;9.870;2023-04-24T14:07:44;1.60;;;1.10;;
65463;SDS011;52063;45.110;9.870;2023-04-24T14:10:09;1.67;;;1.00;;
65463;SDS011;52063;45.110;9.870;2023-04-24T14:12:35;0.90;;;0.60;;
65463;SDS011;52063;45.110;9.870;2023-04-24T14:15:00;0.83;;;0.73;;
65463;SDS011;52063;45.110;9.870;2023-04-24T14:17:26;2.05;;;1.08;;
65463;SDS011;52063;45.110;9.870;2023-04-24T14:19:52;1.00;;;0.80;;
65463;SDS011;52063;45.110;9.870;2023-04-24T14:22:21;1.17;;;0.90;;
65463;SDS011;52063;45.110;9.870;2023-04-24T14:24:46;1.00;;;0.82;;
65463;SDS011;52063;45.110;9.870;2023-04-24T14:27:11;1.60;;;0.70;;
65463;SDS011;52063;45.110;9.870;2023-04-24T14:29:37;1.00;;;0.60;;
65463;SDS011;52063;45.110;9.870;2023-04-24T14:32:02;2.20;;;0.70;;
65463;SDS011;52063;45.110;9.870;2023-04-24T14:34:28;0.85;;;0.77;;
65463;SDS011;52063;45.110;9.870;2023-04-24T14:36:53;1.23;;;0.70;;
65463;SDS011;52063;45.110;9.870;2023-04-24T14:39:19;1.55;;;0.88;;
65463;SDS011;52063;45.110;9.870;2023-04-24T14:41:45;1.30;;;0.80;;
65463;SDS011;52063;45.110;9.870;2023-04-24T14:44:10;0.90;;;0.65;;
65463;SDS011;52063;45.110;9.870;2023-04-24T14:46:36;0.90;;;0.73;;
65463;SDS011;52063;45.110;9.870;2023-04-24T14:49:01;0.70;;;0.70;;
65463;SDS011;52063;45.110;9.870;2023-04-24T14:51:27;0.90;;;0.70;;
65463;SDS011;52063;45.110;9.870;2023-04-24T14:53:52;1.45;;;0.70;;
65463;SDS011;52063;45.110;9.870;2023-04-24T14:56:18;1.70;;;0.70;;
65463;SDS011;52063;45.110;9.870;2023-04-24T14:58:43;0.70;;;0.60;;
65463;SDS011;52063;45.110;9.870;2023-04-24T15:01:09;0.73;;;0.60;;
65463;SDS011;52063;45.110;9.870;2023-04-24T15:03:34;0.97;;;0.80;;
65463;SDS011;52063;45.110;9.870;2023-04-24T15:06:00;1.30;;;0.60;;
65463;SDS011;52063;45.110;9.870;2023-04-24T15:08:26;0.75;;;0.70;;